sensor_id;sensor_type;location;lat;lon;timestamp;temperature;humidity
17843;DHT22;69286;48.222;16.332;2023-05-21T00:00:41;17.10;99.90
17843;DHT22;69286;48.222;16.332;2023-05-21T00:03:08;17.10;99.90
17843;DHT22;69286;48.222;16.332;2023-05-21T00:05:38;17.00;99.90
17843;DHT22;69286;48.222;16.332;2023-05-21T00:08:05;17.00;99.90
17843;DHT22;69286;48.222;16.332;2023-05-21T00:10:32;17.00;99.90
17843;DHT22;69286;48.222;16.332;2023-05-21T00:13:00;16.90;99.90
17843;DHT22;69286;48.222;16.332;2023-05-21T00:15:27;16.80;99.90
17843;DHT22;69286;48.222;16.332;2023-05-21T00:17:54;16.80;99.90
17843;DHT22;69286;48.222;16.332;2023-05-21T00:20:21;16.80;99.90
17843;DHT22;69286;48.222;16.332;2023-05-21T00:22:48;16.80;99.90
17843;DHT22;69286;48.222;16.332;2023-05-21T00:25:16;16.70;99.90
17843;DHT22;69286;48.222;16.332;2023-05-21T00:27:43;16.70;99.90
17843;DHT22;69286;48.222;16.332;2023-05-21T00:30:11;16.70;99.90
17843;DHT22;69286;48.222;16.332;2023-05-21T00:32:38;16.70;99.90
17843;DHT22;69286;48.222;16.332;2023-05-21T00:35:06;16.70;99.90
17843;DHT22;69286;48.222;16.332;2023-05-21T00:37:33;16.70;99.90
17843;DHT22;69286;48.222;16.332;2023-05-21T00:40:00;16.70;99.90
17843;DHT22;69286;48.222;16.332;2023-05-21T00:42:29;16.70;99.90
17843;DHT22;69286;48.222;16.332;2023-05-21T00:44:56;16.70;99.90
17843;DHT22;69286;48.222;16.332;2023-05-21T00:47:24;16.60;99.90
17843;DHT22;69286;48.222;16.332;2023-05-21T00:49:54;16.60;99.90
17843;DHT22;69286;48.222;16.332;2023-05-21T00:52:21;16.60;99.90
17843;DHT22;69286;48.222;16.332;2023-05-21T00:54:51;16.60;99.90
17843;DHT22;69286;48.222;16.332;2023-05-21T00:57:19;16.50;99.90
17843;DHT22;69286;48.222;16.332;2023-05-21T00:59:51;16.50;99.90
17843;DHT22;69286;48.222;16.332;2023-05-21T01:02:18;16.50;99.90
17843;DHT22;69286;48.222;16.332;2023-05-21T01:04:46;16.50;99.90
17843;DHT22;69286;48.222;16.332;2023-05-21T01:07:13;16.50;99.90
17843;DHT22;69286;48.222;16.332;2023-05-21T01:09:41;16.40;99.90
17843;DHT22;69286;48.222;16.332;2023-05-21T01:12:09;16.40;99.90
17843;DHT22;69286;48.222;16.332;2023-05-21T01:14:36;16.30;99.90
17843;DHT22;69286;48.222;16.332;2023-05-21T01:17:05;16.40;99.90
17843;DHT22;69286;48.222;16.332;2023-05-21T01:19:35;16.40;99.90
17843;DHT22;69286;48.222;16.332;2023-05-21T01:22:06;16.30;99.90
17843;DHT22;69286;48.222;16.332;2023-05-21T01:24:35;16.30;99.90
17843;DHT22;69286;48.222;16.332;2023-05-21T01:27:02;16.30;99.90
17843;DHT22;69286;48.222;16.332;2023-05-21T01:29:31;16.30;99.90
17843;DHT22;69286;48.222;16.332;2023-05-21T01:32:04;16.20;99.90
17843;DHT22;69286;48.222;16.332;2023-05-21T01:34:40;16.20;99.90
17843;DHT22;69286;48.222;16.332;2023-05-21T01:37:13;16.20;99.90
17843;DHT22;69286;48.222;16.332;2023-05-21T01:39:44;16.20;99.90
17843;DHT22;69286;48.222;16.332;2023-05-21T01:42:15;16.20;99.90
17843;DHT22;69286;48.222;16.332;2023-05-21T01:44:46;16.20;99.90
17843;DHT22;69286;48.222;16.332;2023-05-21T01:47:15;16.20;99.90
17843;DHT22;69286;48.222;16.332;2023-05-21T01:49:42;16.20;99.90
17843;DHT22;69286;48.222;16.332;2023-05-21T01:52:10;16.20;99.90
17843;DHT22;69286;48.222;16.332;2023-05-21T01:54:37;16.10;99.90
17843;DHT22;69286;48.222;16.332;2023-05-21T01:57:05;16.10;99.90
17843;DHT22;69286;48.222;16.332;2023-05-21T01:59:32;16.10;99.90
17843;DHT22;69286;48.222;16.332;2023-05-21T02:02:01;16.10;99.90
17843;DHT22;69286;48.222;16.332;2023-05-21T02:04:27;16.00;99.90
17843;DHT22;69286;48.222;16.332;2023-05-21T02:06:56;16.00;99.90
17843;DHT22;69286;48.222;16.332;2023-05-21T02:09:23;15.90;99.90
17843;DHT22;69286;48.222;16.332;2023-05-21T02:11:50;15.90;99.90
17843;DHT22;69286;48.222;16.332;2023-05-21T02:14:18;15.80;99.90
17843;DHT22;69286;48.222;16.332;2023-05-21T02:16:46;15.80;99.90
17843;DHT22;69286;48.222;16.332;2023-05-21T02:19:12;15.80;99.90
17843;DHT22;69286;48.222;16.332;2023-05-21T02:21:39;15.80;99.90
17843;DHT22;69286;48.222;16.332;2023-05-21T02:24:06;15.70;99.90
17843;DHT22;69286;48.222;16.332;2023-05-21T02:26:33;15.70;99.90
17843;DHT22;69286;48.222;16.332;2023-05-21T02:29:01;15.70;99.90
17843;DHT22;69286;48.222;16.332;2023-05-21T02:31:29;15.70;99.90
17843;DHT22;69286;48.222;16.332;2023-05-21T02:33:56;15.60;99.90
17843;DHT22;69286;48.222;16.332;2023-05-21T02:36:23;15.60;99.90
17843;DHT22;69286;48.222;16.332;2023-05-21T02:38:53;15.60;99.90
17843;DHT22;69286;48.222;16.332;2023-05-21T02:41:22;15.50;99.90
17843;DHT22;69286;48.222;16.332;2023-05-21T02:43:49;15.60;99.90
17843;DHT22;69286;48.222;16.332;2023-05-21T02:46:16;15.50;99.90
17843;DHT22;69286;48.222;16.332;2023-05-21T02:48:44;15.50;99.90
17843;DHT22;69286;48.222;16.332;2023-05-21T02:51:11;15.60;99.90
17843;DHT22;69286;48.222;16.332;2023-05-21T02:53:38;15.50;99.90
17843;DHT22;69286;48.222;16.332;2023-05-21T02:56:05;15.50;99.90
17843;DHT22;69286;48.222;16.332;2023-05-21T02:58:32;15.50;99.90
17843;DHT22;69286;48.222;16.332;2023-05-21T03:00:59;15.40;99.90
17843;DHT22;69286;48.222;16.332;2023-05-21T03:03:26;15.40;99.90
17843;DHT22;69286;48.222;16.332;2023-05-21T03:05:54;15.40;99.90
17843;DHT22;69286;48.222;16.332;2023-05-21T03:08:23;15.40;99.90
17843;DHT22;69286;48.222;16.332;2023-05-21T03:10:51;15.40;99.90
17843;DHT22;69286;48.222;16.332;2023-05-21T03:13:18;15.30;99.90
17843;DHT22;69286;48.222;16.332;2023-05-21T03:15:45;15.30;99.90
17843;DHT22;69286;48.222;16.332;2023-05-21T03:18:12;15.30;99.90
17843;DHT22;69286;48.222;16.332;2023-05-21T03:20:39;15.40;99.90
17843;DHT22;69286;48.222;16.332;2023-05-21T03:23:09;15.40;99.90
17843;DHT22;69286;48.222;16.332;2023-05-21T03:25:37;15.40;99.90
17843;DHT22;69286;48.222;16.332;2023-05-21T03:28:04;15.40;99.90
17843;DHT22;69286;48.222;16.332;2023-05-21T03:30:32;15.30;99.90
17843;DHT22;69286;48.222;16.332;2023-05-21T03:32:59;15.30;99.90
17843;DHT22;69286;48.222;16.332;2023-05-21T03:35:27;15.30;99.90
17843;DHT22;69286;48.222;16.332;2023-05-21T03:37:54;15.30;99.90
17843;DHT22;69286;48.222;16.332;2023-05-21T03:40:23;15.30;99.90
17843;DHT22;69286;48.222;16.332;2023-05-21T03:42:50;15.40;99.90
17843;DHT22;69286;48.222;16.332;2023-05-21T03:45:16;15.40;99.90
17843;DHT22;69286;48.222;16.332;2023-05-21T03:47:43;15.40;99.90
17843;DHT22;69286;48.222;16.332;2023-05-21T03:50:10;15.40;99.90
17843;DHT22;69286;48.222;16.332;2023-05-21T03:52:37;15.50;99.90
17843;DHT22;69286;48.222;16.332;2023-05-21T03:55:05;15.50;99.90
17843;DHT22;69286;48.222;16.332;2023-05-21T03:57:33;15.50;99.90
17843;DHT22;69286;48.222;16.332;2023-05-21T04:00:01;15.50;99.90
17843;DHT22;69286;48.222;16.332;2023-05-21T04:02:28;15.50;99.90
17843;DHT22;69286;48.222;16.332;2023-05-21T04:04:55;15.60;99.90
17843;DHT22;69286;48.222;16.332;2023-05-21T04:07:22;15.60;99.90
17843;DHT22;69286;48.222;16.332;2023-05-21T04:09:49;15.60;99.90
17843;DHT22;69286;48.222;16.332;2023-05-21T04:12:16;15.70;99.90
17843;DHT22;69286;48.222;16.332;2023-05-21T04:14:46;15.80;99.90
17843;DHT22;69286;48.222;16.332;2023-05-21T04:17:13;15.90;99.90
17843;DHT22;69286;48.222;16.332;2023-05-21T04:19:40;15.90;99.90
17843;DHT22;69286;48.222;16.332;2023-05-21T04:22:08;16.00;99.90
17843;DHT22;69286;48.222;16.332;2023-05-21T04:24:35;16.10;99.90
17843;DHT22;69286;48.222;16.332;2023-05-21T04:27:04;16.20;99.90
17843;DHT22;69286;48.222;16.332;2023-05-21T04:29:31;16.40;99.90
17843;DHT22;69286;48.222;16.332;2023-05-21T04:31:59;16.60;99.90
17843;DHT22;69286;48.222;16.332;2023-05-21T04:34:26;16.80;99.90
17843;DHT22;69286;48.222;16.332;2023-05-21T04:36:54;17.00;99.90
17843;DHT22;69286;48.222;16.332;2023-05-21T04:39:21;17.10;99.90
17843;DHT22;69286;48.222;16.332;2023-05-21T04:41:48;17.30;99.90
17843;DHT22;69286;48.222;16.332;2023-05-21T04:44:19;17.50;99.90
17843;DHT22;69286;48.222;16.332;2023-05-21T04:46:46;17.70;99.90
17843;DHT22;69286;48.222;16.332;2023-05-21T04:49:14;17.90;99.90
17843;DHT22;69286;48.222;16.332;2023-05-21T04:51:41;18.00;99.90
17843;DHT22;69286;48.222;16.332;2023-05-21T04:54:08;18.20;99.90
17843;DHT22;69286;48.222;16.332;2023-05-21T04:56:35;18.40;99.30
17843;DHT22;69286;48.222;16.332;2023-05-21T04:59:02;18.70;98.50
17843;DHT22;69286;48.222;16.332;2023-05-21T05:01:31;18.90;97.60
17843;DHT22;69286;48.222;16.332;2023-05-21T05:03:59;19.10;96.70
17843;DHT22;69286;48.222;16.332;2023-05-21T05:06:27;19.30;96.00
17843;DHT22;69286;48.222;16.332;2023-05-21T05:08:54;19.50;95.40
17843;DHT22;69286;48.222;16.332;2023-05-21T05:11:22;19.70;94.50
17843;DHT22;69286;48.222;16.332;2023-05-21T05:13:48;19.90;93.90
17843;DHT22;69286;48.222;16.332;2023-05-21T05:16:16;20.20;93.00
17843;DHT22;69286;48.222;16.332;2023-05-21T05:18:49;20.40;92.00
17843;DHT22;69286;48.222;16.332;2023-05-21T05:21:16;20.70;90.60
17843;DHT22;69286;48.222;16.332;2023-05-21T05:23:44;20.90;89.40
17843;DHT22;69286;48.222;16.332;2023-05-21T05:26:11;21.20;86.90
17843;DHT22;69286;48.222;16.332;2023-05-21T05:28:38;21.50;86.00
17843;DHT22;69286;48.222;16.332;2023-05-21T05:31:05;21.80;82.50
17843;DHT22;69286;48.222;16.332;2023-05-21T05:33:32;22.00;81.20
17843;DHT22;69286;48.222;16.332;2023-05-21T05:35:59;22.20;80.10
17843;DHT22;69286;48.222;16.332;2023-05-21T05:38:26;22.50;78.20
17843;DHT22;69286;48.222;16.332;2023-05-21T05:40:54;22.60;77.10
17843;DHT22;69286;48.222;16.332;2023-05-21T05:43:22;22.70;75.80
17843;DHT22;69286;48.222;16.332;2023-05-21T05:45:50;23.00;75.90
17843;DHT22;69286;48.222;16.332;2023-05-21T05:48:17;23.20;72.80
17843;DHT22;69286;48.222;16.332;2023-05-21T05:50:44;23.40;71.50
17843;DHT22;69286;48.222;16.332;2023-05-21T05:53:11;23.60;70.30
17843;DHT22;69286;48.222;16.332;2023-05-21T05:55:39;23.70;69.30
17843;DHT22;69286;48.222;16.332;2023-05-21T05:58:07;23.70;68.50
17843;DHT22;69286;48.222;16.332;2023-05-21T06:00:34;23.80;67.50
17843;DHT22;69286;48.222;16.332;2023-05-21T06:03:01;23.70;67.50
17843;DHT22;69286;48.222;16.332;2023-05-21T06:05:28;23.90;66.70
17843;DHT22;69286;48.222;16.332;2023-05-21T06:07:55;23.90;66.40
17843;DHT22;69286;48.222;16.332;2023-05-21T06:10:22;24.00;65.50
17843;DHT22;69286;48.222;16.332;2023-05-21T06:12:49;24.30;64.60
17843;DHT22;69286;48.222;16.332;2023-05-21T06:15:17;24.30;64.20
17843;DHT22;69286;48.222;16.332;2023-05-21T06:17:44;24.40;64.20
17843;DHT22;69286;48.222;16.332;2023-05-21T06:20:11;24.50;63.40
17843;DHT22;69286;48.222;16.332;2023-05-21T06:22:38;24.70;62.50
17843;DHT22;69286;48.222;16.332;2023-05-21T06:25:06;24.70;61.50
17843;DHT22;69286;48.222;16.332;2023-05-21T06:27:35;25.10;60.90
17843;DHT22;69286;48.222;16.332;2023-05-21T06:30:03;25.60;60.10
17843;DHT22;69286;48.222;16.332;2023-05-21T06:32:31;26.00;59.00
17843;DHT22;69286;48.222;16.332;2023-05-21T06:34:58;26.30;57.60
17843;DHT22;69286;48.222;16.332;2023-05-21T06:37:25;26.60;57.10
17843;DHT22;69286;48.222;16.332;2023-05-21T06:39:52;26.80;56.40
17843;DHT22;69286;48.222;16.332;2023-05-21T06:42:19;26.90;56.50
17843;DHT22;69286;48.222;16.332;2023-05-21T06:44:46;26.50;56.10
17843;DHT22;69286;48.222;16.332;2023-05-21T06:47:13;27.10;56.20
17843;DHT22;69286;48.222;16.332;2023-05-21T06:49:41;27.00;55.70
17843;DHT22;69286;48.222;16.332;2023-05-21T06:52:08;26.60;56.00
17843;DHT22;69286;48.222;16.332;2023-05-21T06:54:35;26.90;55.60
17843;DHT22;69286;48.222;16.332;2023-05-21T06:57:02;27.80;54.60
17843;DHT22;69286;48.222;16.332;2023-05-21T06:59:29;28.70;53.40
17843;DHT22;69286;48.222;16.332;2023-05-21T07:01:57;29.40;51.50
17843;DHT22;69286;48.222;16.332;2023-05-21T07:04:24;30.00;50.20
17843;DHT22;69286;48.222;16.332;2023-05-21T07:06:52;30.70;49.40
17843;DHT22;69286;48.222;16.332;2023-05-21T07:09:19;30.80;48.40
17843;DHT22;69286;48.222;16.332;2023-05-21T07:11:46;31.00;48.30
17843;DHT22;69286;48.222;16.332;2023-05-21T07:14:13;30.90;48.20
17843;DHT22;69286;48.222;16.332;2023-05-21T07:16:40;31.20;47.80
17843;DHT22;69286;48.222;16.332;2023-05-21T07:19:07;31.00;47.50
17843;DHT22;69286;48.222;16.332;2023-05-21T07:21:34;30.80;47.90
17843;DHT22;69286;48.222;16.332;2023-05-21T07:24:02;30.60;47.80
17843;DHT22;69286;48.222;16.332;2023-05-21T07:26:29;30.60;48.10
17843;DHT22;69286;48.222;16.332;2023-05-21T07:28:56;30.60;47.90
17843;DHT22;69286;48.222;16.332;2023-05-21T07:31:23;30.60;48.00
17843;DHT22;69286;48.222;16.332;2023-05-21T07:33:51;30.80;47.10
17843;DHT22;69286;48.222;16.332;2023-05-21T07:36:18;30.80;47.30
17843;DHT22;69286;48.222;16.332;2023-05-21T07:38:45;30.70;47.10
17843;DHT22;69286;48.222;16.332;2023-05-21T07:41:13;31.00;47.20
17843;DHT22;69286;48.222;16.332;2023-05-21T07:43:40;30.90;46.80
17843;DHT22;69286;48.222;16.332;2023-05-21T07:46:07;30.80;47.70
17843;DHT22;69286;48.222;16.332;2023-05-21T07:48:34;30.70;47.30
17843;DHT22;69286;48.222;16.332;2023-05-21T07:51:01;30.70;47.00
17843;DHT22;69286;48.222;16.332;2023-05-21T07:53:29;30.50;47.20
17843;DHT22;69286;48.222;16.332;2023-05-21T07:55:58;30.70;46.80
17843;DHT22;69286;48.222;16.332;2023-05-21T07:58:26;30.80;46.70
17843;DHT22;69286;48.222;16.332;2023-05-21T08:00:53;30.70;46.70
17843;DHT22;69286;48.222;16.332;2023-05-21T08:03:20;30.90;46.80
17843;DHT22;69286;48.222;16.332;2023-05-21T08:05:47;31.00;46.30
17843;DHT22;69286;48.222;16.332;2023-05-21T08:08:15;31.00;46.70
17843;DHT22;69286;48.222;16.332;2023-05-21T08:10:42;31.20;46.60
17843;DHT22;69286;48.222;16.332;2023-05-21T08:13:11;31.10;46.70
17843;DHT22;69286;48.222;16.332;2023-05-21T08:15:39;31.00;46.60
17843;DHT22;69286;48.222;16.332;2023-05-21T08:18:06;31.00;46.60
17843;DHT22;69286;48.222;16.332;2023-05-21T08:20:33;30.80;46.90
17843;DHT22;69286;48.222;16.332;2023-05-21T08:23:00;30.60;47.30
17843;DHT22;69286;48.222;16.332;2023-05-21T08:25:27;30.60;47.60
17843;DHT22;69286;48.222;16.332;2023-05-21T08:27:54;30.80;47.30
17843;DHT22;69286;48.222;16.332;2023-05-21T08:30:21;30.70;46.50
17843;DHT22;69286;48.222;16.332;2023-05-21T08:32:49;30.50;47.10
17843;DHT22;69286;48.222;16.332;2023-05-21T08:35:16;30.30;47.60
17843;DHT22;69286;48.222;16.332;2023-05-21T08:37:43;30.40;47.50
17843;DHT22;69286;48.222;16.332;2023-05-21T08:40:11;30.30;48.00
17843;DHT22;69286;48.222;16.332;2023-05-21T08:42:43;30.60;47.30
17843;DHT22;69286;48.222;16.332;2023-05-21T08:45:11;30.70;47.30
17843;DHT22;69286;48.222;16.332;2023-05-21T08:47:41;31.20;46.70
17843;DHT22;69286;48.222;16.332;2023-05-21T08:50:12;31.40;46.00
17843;DHT22;69286;48.222;16.332;2023-05-21T08:52:39;31.30;46.00
17843;DHT22;69286;48.222;16.332;2023-05-21T08:55:07;31.50;45.70
17843;DHT22;69286;48.222;16.332;2023-05-21T08:57:35;31.70;45.40
17843;DHT22;69286;48.222;16.332;2023-05-21T09:00:03;32.20;44.60
17843;DHT22;69286;48.222;16.332;2023-05-21T09:02:32;32.30;44.10
17843;DHT22;69286;48.222;16.332;2023-05-21T09:05:00;32.40;44.40
17843;DHT22;69286;48.222;16.332;2023-05-21T09:07:30;32.40;43.70
17843;DHT22;69286;48.222;16.332;2023-05-21T09:10:02;32.40;43.40
17843;DHT22;69286;48.222;16.332;2023-05-21T09:12:31;32.50;43.60
17843;DHT22;69286;48.222;16.332;2023-05-21T09:14:59;32.50;43.10
17843;DHT22;69286;48.222;16.332;2023-05-21T09:17:26;32.70;43.20
17843;DHT22;69286;48.222;16.332;2023-05-21T09:20:07;33.20;42.60
17843;DHT22;69286;48.222;16.332;2023-05-21T09:22:43;33.10;42.10
17843;DHT22;69286;48.222;16.332;2023-05-21T09:25:13;33.20;42.30
17843;DHT22;69286;48.222;16.332;2023-05-21T09:27:40;32.90;42.10
17843;DHT22;69286;48.222;16.332;2023-05-21T09:30:10;32.90;42.30
17843;DHT22;69286;48.222;16.332;2023-05-21T09:32:37;33.30;42.10
17843;DHT22;69286;48.222;16.332;2023-05-21T09:35:08;33.20;40.70
17843;DHT22;69286;48.222;16.332;2023-05-21T09:37:37;33.40;40.90
17843;DHT22;69286;48.222;16.332;2023-05-21T09:40:13;33.40;40.50
17843;DHT22;69286;48.222;16.332;2023-05-21T09:42:41;33.00;41.40
17843;DHT22;69286;48.222;16.332;2023-05-21T09:45:09;32.40;41.90
17843;DHT22;69286;48.222;16.332;2023-05-21T09:47:40;31.60;42.40
17843;DHT22;69286;48.222;16.332;2023-05-21T09:50:09;30.70;43.80
17843;DHT22;69286;48.222;16.332;2023-05-21T09:52:36;30.00;45.00
17843;DHT22;69286;48.222;16.332;2023-05-21T09:55:04;29.50;45.70
17843;DHT22;69286;48.222;16.332;2023-05-21T09:57:39;29.00;46.30
17843;DHT22;69286;48.222;16.332;2023-05-21T10:00:08;28.80;46.80
17843;DHT22;69286;48.222;16.332;2023-05-21T10:02:40;28.50;46.90
17843;DHT22;69286;48.222;16.332;2023-05-21T10:05:09;28.30;47.50
17843;DHT22;69286;48.222;16.332;2023-05-21T10:07:38;28.00;47.40
17843;DHT22;69286;48.222;16.332;2023-05-21T10:10:11;27.80;47.40
17843;DHT22;69286;48.222;16.332;2023-05-21T10:12:42;27.50;48.50
17843;DHT22;69286;48.222;16.332;2023-05-21T10:15:13;27.30;48.50
17843;DHT22;69286;48.222;16.332;2023-05-21T10:17:41;27.00;49.70
17843;DHT22;69286;48.222;16.332;2023-05-21T10:20:09;26.80;49.60
17843;DHT22;69286;48.222;16.332;2023-05-21T10:22:37;27.00;50.20
17843;DHT22;69286;48.222;16.332;2023-05-21T10:25:06;26.90;50.90
17843;DHT22;69286;48.222;16.332;2023-05-21T10:27:34;26.80;51.00
17843;DHT22;69286;48.222;16.332;2023-05-21T10:30:04;26.80;51.10
17843;DHT22;69286;48.222;16.332;2023-05-21T10:32:31;26.70;50.60
17843;DHT22;69286;48.222;16.332;2023-05-21T10:34:59;26.60;51.10
17843;DHT22;69286;48.222;16.332;2023-05-21T10:37:27;26.60;51.70
17843;DHT22;69286;48.222;16.332;2023-05-21T10:39:55;26.60;52.00
17843;DHT22;69286;48.222;16.332;2023-05-21T10:42:57;26.60;52.20
17843;DHT22;69286;48.222;16.332;2023-05-21T10:45:38;26.70;51.90
17843;DHT22;69286;48.222;16.332;2023-05-21T10:48:23;26.70;51.50
17843;DHT22;69286;48.222;16.332;2023-05-21T10:54:18;26.80;52.10
17843;DHT22;69286;48.222;16.332;2023-05-21T10:56:58;26.60;52.20
17843;DHT22;69286;48.222;16.332;2023-05-21T10:59:35;26.70;51.50
17843;DHT22;69286;48.222;16.332;2023-05-21T11:02:08;26.70;52.20
17843;DHT22;69286;48.222;16.332;2023-05-21T11:04:35;26.60;52.50
17843;DHT22;69286;48.222;16.332;2023-05-21T11:07:04;26.60;52.70
17843;DHT22;69286;48.222;16.332;2023-05-21T11:09:31;26.60;53.20
17843;DHT22;69286;48.222;16.332;2023-05-21T11:11:59;26.70;53.20
17843;DHT22;69286;48.222;16.332;2023-05-21T11:14:33;26.70;52.60
17843;DHT22;69286;48.222;16.332;2023-05-21T11:17:10;26.60;52.70
17843;DHT22;69286;48.222;16.332;2023-05-21T11:19:39;26.60;52.80
17843;DHT22;69286;48.222;16.332;2023-05-21T11:22:07;26.60;52.60
17843;DHT22;69286;48.222;16.332;2023-05-21T11:24:37;26.60;52.20
17843;DHT22;69286;48.222;16.332;2023-05-21T11:27:04;26.60;52.50
17843;DHT22;69286;48.222;16.332;2023-05-21T11:29:38;26.60;52.20
17843;DHT22;69286;48.222;16.332;2023-05-21T11:32:06;26.50;52.10
17843;DHT22;69286;48.222;16.332;2023-05-21T11:34:45;26.40;52.20
17843;DHT22;69286;48.222;16.332;2023-05-21T11:37:29;26.60;52.40
17843;DHT22;69286;48.222;16.332;2023-05-21T11:40:15;26.60;52.30
17843;DHT22;69286;48.222;16.332;2023-05-21T11:42:48;26.70;52.20
17843;DHT22;69286;48.222;16.332;2023-05-21T11:45:16;26.70;50.80
17843;DHT22;69286;48.222;16.332;2023-05-21T11:47:45;26.70;51.50
17843;DHT22;69286;48.222;16.332;2023-05-21T11:50:14;26.60;51.30
17843;DHT22;69286;48.222;16.332;2023-05-21T11:52:41;26.40;51.70
17843;DHT22;69286;48.222;16.332;2023-05-21T11:55:09;26.40;51.40
17843;DHT22;69286;48.222;16.332;2023-05-21T11:57:39;26.40;51.70
17843;DHT22;69286;48.222;16.332;2023-05-21T12:00:13;26.40;51.70
17843;DHT22;69286;48.222;16.332;2023-05-21T12:02:44;26.40;51.40
17843;DHT22;69286;48.222;16.332;2023-05-21T12:05:13;26.30;51.70
17843;DHT22;69286;48.222;16.332;2023-05-21T12:07:40;26.30;51.90
17843;DHT22;69286;48.222;16.332;2023-05-21T12:10:07;26.30;51.50
17843;DHT22;69286;48.222;16.332;2023-05-21T12:12:36;26.40;51.30
17843;DHT22;69286;48.222;16.332;2023-05-21T12:15:03;26.40;51.60
17843;DHT22;69286;48.222;16.332;2023-05-21T12:17:31;26.30;51.80
17843;DHT22;69286;48.222;16.332;2023-05-21T12:19:58;26.30;51.90
17843;DHT22;69286;48.222;16.332;2023-05-21T12:22:27;26.20;51.80
17843;DHT22;69286;48.222;16.332;2023-05-21T12:24:54;26.20;51.70
17843;DHT22;69286;48.222;16.332;2023-05-21T12:27:22;26.30;51.30
17843;DHT22;69286;48.222;16.332;2023-05-21T12:29:50;26.20;50.90
17843;DHT22;69286;48.222;16.332;2023-05-21T12:32:19;26.30;51.00
17843;DHT22;69286;48.222;16.332;2023-05-21T12:34:47;26.30;51.10
17843;DHT22;69286;48.222;16.332;2023-05-21T12:37:16;26.20;51.30
17843;DHT22;69286;48.222;16.332;2023-05-21T12:39:45;26.10;51.00
17843;DHT22;69286;48.222;16.332;2023-05-21T12:42:13;26.10;51.00
17843;DHT22;69286;48.222;16.332;2023-05-21T12:44:43;26.10;51.00
17843;DHT22;69286;48.222;16.332;2023-05-21T12:47:10;26.20;50.70
17843;DHT22;69286;48.222;16.332;2023-05-21T12:49:39;26.20;51.10
17843;DHT22;69286;48.222;16.332;2023-05-21T12:52:08;26.30;51.50
17843;DHT22;69286;48.222;16.332;2023-05-21T12:54:36;26.30;51.00
17843;DHT22;69286;48.222;16.332;2023-05-21T12:57:09;26.30;51.40
17843;DHT22;69286;48.222;16.332;2023-05-21T12:59:46;26.30;50.60
17843;DHT22;69286;48.222;16.332;2023-05-21T13:02:15;26.10;50.40
17843;DHT22;69286;48.222;16.332;2023-05-21T13:04:42;26.10;50.50
17843;DHT22;69286;48.222;16.332;2023-05-21T13:07:09;26.00;50.30
17843;DHT22;69286;48.222;16.332;2023-05-21T13:09:36;25.90;50.40
17843;DHT22;69286;48.222;16.332;2023-05-21T13:12:03;25.90;51.60
17843;DHT22;69286;48.222;16.332;2023-05-21T13:14:31;26.00;52.50
17843;DHT22;69286;48.222;16.332;2023-05-21T13:16:58;26.10;52.30
17843;DHT22;69286;48.222;16.332;2023-05-21T13:19:26;26.10;51.20
17843;DHT22;69286;48.222;16.332;2023-05-21T13:21:52;26.10;49.70
17843;DHT22;69286;48.222;16.332;2023-05-21T13:24:19;26.10;48.80
17843;DHT22;69286;48.222;16.332;2023-05-21T13:26:46;26.10;48.40
17843;DHT22;69286;48.222;16.332;2023-05-21T13:29:13;26.10;47.70
17843;DHT22;69286;48.222;16.332;2023-05-21T13:31:43;26.10;48.10
17843;DHT22;69286;48.222;16.332;2023-05-21T13:34:11;26.10;48.20
17843;DHT22;69286;48.222;16.332;2023-05-21T13:36:38;26.20;48.20
17843;DHT22;69286;48.222;16.332;2023-05-21T13:39:05;26.30;47.70
17843;DHT22;69286;48.222;16.332;2023-05-21T13:41:32;26.20;47.20
17843;DHT22;69286;48.222;16.332;2023-05-21T13:43:59;25.90;46.50
17843;DHT22;69286;48.222;16.332;2023-05-21T13:46:26;25.90;46.80
17843;DHT22;69286;48.222;16.332;2023-05-21T13:48:54;25.90;46.30
17843;DHT22;69286;48.222;16.332;2023-05-21T13:51:21;26.00;45.30
17843;DHT22;69286;48.222;16.332;2023-05-21T13:53:48;26.10;45.00
17843;DHT22;69286;48.222;16.332;2023-05-21T13:56:15;26.00;45.40
17843;DHT22;69286;48.222;16.332;2023-05-21T13:58:42;26.00;46.00
17843;DHT22;69286;48.222;16.332;2023-05-21T14:01:09;26.00;46.10
17843;DHT22;69286;48.222;16.332;2023-05-21T14:03:36;26.10;47.20
17843;DHT22;69286;48.222;16.332;2023-05-21T14:06:05;26.10;46.60
17843;DHT22;69286;48.222;16.332;2023-05-21T14:08:33;26.10;47.10
17843;DHT22;69286;48.222;16.332;2023-05-21T14:11:00;26.20;47.20
17843;DHT22;69286;48.222;16.332;2023-05-21T14:13:27;26.30;47.20
17843;DHT22;69286;48.222;16.332;2023-05-21T14:15:54;26.30;47.10
17843;DHT22;69286;48.222;16.332;2023-05-21T14:18:21;26.30;48.10
17843;DHT22;69286;48.222;16.332;2023-05-21T14:20:48;26.30;49.20
17843;DHT22;69286;48.222;16.332;2023-05-21T14:23:16;26.30;49.40
17843;DHT22;69286;48.222;16.332;2023-05-21T14:25:43;26.20;49.80
17843;DHT22;69286;48.222;16.332;2023-05-21T14:28:10;26.20;50.10
17843;DHT22;69286;48.222;16.332;2023-05-21T14:30:37;26.20;50.30
17843;DHT22;69286;48.222;16.332;2023-05-21T14:33:03;26.10;50.00
17843;DHT22;69286;48.222;16.332;2023-05-21T14:35:30;26.10;50.20
17843;DHT22;69286;48.222;16.332;2023-05-21T14:37:57;26.10;50.40
17843;DHT22;69286;48.222;16.332;2023-05-21T14:40:25;26.00;50.10
17843;DHT22;69286;48.222;16.332;2023-05-21T14:42:52;25.90;51.10
17843;DHT22;69286;48.222;16.332;2023-05-21T14:45:20;25.90;51.40
17843;DHT22;69286;48.222;16.332;2023-05-21T14:47:47;25.90;51.40
17843;DHT22;69286;48.222;16.332;2023-05-21T14:50:15;25.90;50.90
17843;DHT22;69286;48.222;16.332;2023-05-21T14:52:42;26.00;51.00
17843;DHT22;69286;48.222;16.332;2023-05-21T14:55:09;25.90;50.70
17843;DHT22;69286;48.222;16.332;2023-05-21T14:57:39;25.90;50.70
17843;DHT22;69286;48.222;16.332;2023-05-21T15:00:07;25.80;51.10
17843;DHT22;69286;48.222;16.332;2023-05-21T15:02:34;25.80;50.80
17843;DHT22;69286;48.222;16.332;2023-05-21T15:05:01;25.70;50.90
17843;DHT22;69286;48.222;16.332;2023-05-21T15:07:28;25.70;51.40
17843;DHT22;69286;48.222;16.332;2023-05-21T15:09:55;25.70;51.30
17843;DHT22;69286;48.222;16.332;2023-05-21T15:12:22;25.70;51.30
17843;DHT22;69286;48.222;16.332;2023-05-21T15:14:50;25.60;51.10
17843;DHT22;69286;48.222;16.332;2023-05-21T15:17:17;25.60;51.30
17843;DHT22;69286;48.222;16.332;2023-05-21T15:19:44;25.60;51.00
17843;DHT22;69286;48.222;16.332;2023-05-21T15:22:11;25.60;51.10
17843;DHT22;69286;48.222;16.332;2023-05-21T15:24:38;25.70;50.70